Time;durP1;ratioP1;P1;durP2;ratioP2;P2;SDS_P1;SDS_P2;PMS_P1;PMS_P2;Temp;Humidity;BMP_temperature;BMP_pressure;BME280_temperature;BME280_humidity;BME280_pressure;Samples;Min_cycle;Max_cycle;Signal;HPM_P1;HPM_P2
2020/12/20 00:00:49;;;;;;;10.17;3.03;;;8.10;99.90;;;;;;5095435;28;20031;-65
2020/12/20 00:03:16;;;;;;;8.67;3.17;;;8.20;99.90;;;;;;5094759;28;20020;-65
2020/12/20 00:05:41;;;;;;;39.47;22.77;;;8.20;99.90;;;;;;5096588;28;20028;-64
2020/12/20 00:08:07;;;;;;;13.77;4.20;;;8.00;99.90;;;;;;5096583;28;20039;-64
2020/12/20 00:10:33;;;;;;;21.67;8.70;;;8.10;99.90;;;;;;5096531;28;20040;-64
2020/12/20 00:12:58;;;;;;;14.10;5.53;;;8.00;99.90;;;;;;5096465;28;20028;-64
2020/12/20 00:15:25;;;;;;;11.17;3.60;;;8.00;99.90;;;;;;5096472;28;20036;-65
2020/12/20 00:17:51;;;;;;;21.97;5.57;;;8.00;99.90;;;;;;5096559;28;20027;-65
2020/12/20 00:20:18;;;;;;;10.63;4.23;;;8.00;99.90;;;;;;5096196;28;20020;-65
2020/12/20 00:22:43;;;;;;;12.10;4.97;;;7.90;99.90;;;;;;5096498;28;20415;-65
2020/12/20 00:25:09;;;;;;;19.50;9.73;;;8.00;99.90;;;;;;5096401;28;20028;-65
2020/12/20 00:27:35;;;;;;;16.63;5.80;;;8.00;99.90;;;;;;5095871;28;20107;-65
2020/12/20 00:30:01;;;;;;;20.93;8.33;;;7.90;99.90;;;;;;5096322;28;20027;-65
2020/12/20 00:32:26;;;;;;;14.87;5.97;;;7.90;99.90;;;;;;5096068;28;20253;-64
2020/12/20 00:34:52;;;;;;;11.60;5.30;;;7.80;99.90;;;;;;5096202;28;20088;-64
2020/12/20 00:37:17;;;;;;;15.27;7.03;;;7.80;99.90;;;;;;5095998;28;20118;-65
2020/12/20 00:39:43;;;;;;;14.50;5.97;;;7.80;99.90;;;;;;5095787;28;20330;-65
2020/12/20 00:42:09;;;;;;;15.70;4.73;;;7.80;99.90;;;;;;5094688;28;20028;-64
2020/12/20 00:44:35;;;;;;;16.03;2.83;;;7.70;99.90;;;;;;5094899;28;20035;-64
2020/12/20 00:47:02;;;;;;;11.63;3.37;;;7.70;99.90;;;;;;5095860;28;20511;-64
2020/12/20 00:49:29;;;;;;;9.50;4.97;;;7.60;99.90;;;;;;5095411;28;20046;-65
2020/12/20 00:51:58;;;;;;;9.23;2.67;;;7.50;99.90;;;;;;5095372;28;20036;-64
2020/12/20 00:54:27;;;;;;;9.03;2.13;;;7.60;99.90;;;;;;5096174;28;20024;-65
2020/12/20 00:56:53;;;;;;;12.93;2.20;;;7.60;99.90;;;;;;5096005;28;20024;-64
2020/12/20 00:59:19;;;;;;;5.93;1.90;;;7.60;99.90;;;;;;5096532;28;20377;-64
2020/12/20 01:01:44;;;;;;;6.50;2.00;;;7.60;99.90;;;;;;5095670;28;20028;-65
2020/12/20 01:04:10;;;;;;;7.20;2.00;;;7.50;99.90;;;;;;5096188;28;20028;-66
2020/12/20 01:06:36;;;;;;;6.70;2.33;;;7.40;99.90;;;;;;5095195;28;20111;-64
2020/12/20 01:09:03;;;;;;;11.10;3.13;;;7.30;99.90;;;;;;5094459;28;20020;-65
2020/12/20 01:11:29;;;;;;;5.93;2.07;;;7.40;99.90;;;;;;5095611;28;20040;-64
2020/12/20 01:13:55;;;;;;;10.87;2.77;;;7.50;99.90;;;;;;5095795;28;20035;-64
2020/12/20 01:16:23;;;;;;;11.13;1.93;;;7.40;99.90;;;;;;5095843;28;20346;-64
2020/12/20 01:18:49;;;;;;;6.20;1.90;;;7.40;99.90;;;;;;5095058;28;20327;-65
2020/12/20 01:21:16;;;;;;;8.57;2.80;;;7.40;99.90;;;;;;5095653;28;20047;-65
2020/12/20 01:23:42;;;;;;;14.43;3.17;;;7.40;99.90;;;;;;5095373;28;20024;-65
2020/12/20 01:26:07;;;;;;;8.40;2.23;;;7.50;99.90;;;;;;5095083;28;20024;-65
2020/12/20 01:28:33;;;;;;;7.30;2.37;;;7.40;99.90;;;;;;5094535;28;20031;-65
2020/12/20 01:31:03;;;;;;;7.93;2.67;;;7.40;99.90;;;;;;5095562;28;20035;-64
2020/12/20 01:33:29;;;;;;;6.73;1.90;;;7.40;99.90;;;;;;5095535;28;20020;-64
2020/12/20 01:35:54;;;;;;;11.10;2.30;;;7.40;99.90;;;;;;5095433;28;20042;-64
2020/12/20 01:38:20;;;;;;;7.33;1.80;;;7.40;99.90;;;;;;5094296;28;20028;-64
2020/12/20 01:40:53;;;;;;;8.57;3.10;;;7.40;99.90;;;;;;5095137;28;20430;-64
2020/12/20 01:43:19;;;;;;;8.52;3.47;;;7.30;99.90;;;;;;5095815;28;20103;-64
2020/12/20 01:45:44;;;;;;;14.70;2.73;;;7.30;99.90;;;;;;5095180;28;20107;-64
2020/12/20 01:48:11;;;;;;;11.00;2.50;;;7.40;99.90;;;;;;5093852;28;20098;-64
2020/12/20 01:50:38;;;;;;;11.47;2.30;;;7.40;99.90;;;;;;5095504;28;20031;-64
2020/12/20 01:53:04;;;;;;;3.97;2.03;;;7.50;99.90;;;;;;5095180;28;20039;-64
2020/12/20 01:55:31;;;;;;;8.87;2.50;;;7.60;99.90;;;;;;5095057;28;20075;-64
2020/12/20 01:57:57;;;;;;;9.47;3.07;;;7.60;99.90;;;;;;5095173;28;20311;-64
2020/12/20 02:00:22;;;;;;;10.00;3.83;;;7.60;99.90;;;;;;5077409;28;20028;-64
2020/12/20 02:02:48;;;;;;;9.27;3.63;;;7.60;99.90;;;;;;5094853;28;20469;-64
2020/12/20 02:05:14;;;;;;;7.03;4.23;;;7.70;99.90;;;;;;5098297;28;20443;-64
2020/12/20 02:07:40;;;;;;;8.93;2.93;;;7.70;99.90;;;;;;5099159;28;20032;-64
2020/12/20 02:10:06;;;;;;;13.07;2.27;;;7.70;99.90;;;;;;5098813;28;20020;-64
2020/12/20 02:12:31;;;;;;;7.37;2.63;;;7.60;99.90;;;;;;5098506;28;20494;-64
2020/12/20 02:14:57;;;;;;;9.37;2.27;;;7.60;99.90;;;;;;5097210;28;20031;-64
2020/12/20 02:17:23;;;;;;;9.03;2.20;;;7.60;99.90;;;;;;5080746;28;20036;-64
2020/12/20 02:19:49;;;;;;;12.97;3.23;;;7.60;99.90;;;;;;5096710;28;20016;-64
2020/12/20 02:22:15;;;;;;;13.03;3.33;;;7.70;99.90;;;;;;5098897;28;20031;-64
2020/12/20 02:24:42;;;;;;;7.30;2.37;;;7.60;99.90;;;;;;5098219;28;20026;-64
2020/12/20 02:27:08;;;;;;;10.80;2.63;;;7.50;99.90;;;;;;5098307;28;20315;-64
2020/12/20 02:29:34;;;;;;;13.00;3.03;;;7.50;99.90;;;;;;5098584;28;20034;-64
2020/12/20 02:31:59;;;;;;;6.13;2.50;;;7.50;99.90;;;;;;5099097;28;20038;-64
2020/12/20 02:34:25;;;;;;;13.70;3.73;;;7.60;99.90;;;;;;5098158;28;20035;-64
2020/12/20 02:36:51;;;;;;;9.63;2.90;;;7.70;99.90;;;;;;5098377;28;20024;-65
2020/12/20 02:39:17;;;;;;;13.70;3.20;;;7.60;99.90;;;;;;5098292;28;20490;-64
2020/12/20 02:41:42;;;;;;;13.07;3.50;;;7.60;99.90;;;;;;5098452;28;20119;-64
2020/12/20 02:44:08;;;;;;;11.50;2.93;;;7.60;99.90;;;;;;5098050;28;20288;-64
2020/12/20 02:46:34;;;;;;;8.87;2.03;;;7.60;99.90;;;;;;5097746;28;20112;-64
2020/12/20 02:49:01;;;;;;;9.30;2.77;;;7.60;99.90;;;;;;5097953;28;20477;-64
2020/12/20 02:51:27;;;;;;;7.37;2.20;;;7.50;99.90;;;;;;5098060;28;20051;-64
2020/12/20 02:53:52;;;;;;;8.23;2.80;;;7.40;99.90;;;;;;5097684;28;20430;-64
2020/12/20 02:56:22;;;;;;;6.20;2.17;;;7.30;99.90;;;;;;5082345;28;20035;-64
2020/12/20 02:58:49;;;;;;;11.80;3.00;;;7.30;99.90;;;;;;5098324;28;20031;-64
2020/12/20 03:01:15;;;;;;;9.17;3.63;;;7.30;99.90;;;;;;5097732;28;20028;-64
2020/12/20 03:03:41;;;;;;;8.70;2.30;;;7.20;99.90;;;;;;5097636;28;20031;-64
2020/12/20 03:06:07;;;;;;;7.43;1.80;;;7.20;99.90;;;;;;5097360;28;20024;-64
2020/12/20 03:08:33;;;;;;;11.07;2.47;;;7.20;99.90;;;;;;5098098;28;20032;-64
2020/12/20 03:10:59;;;;;;;7.93;2.33;;;7.10;99.90;;;;;;5096087;28;20082;-64
2020/12/20 03:13:25;;;;;;;7.80;2.67;;;7.10;99.90;;;;;;5097622;28;20115;-64
2020/12/20 03:15:51;;;;;;;6.27;1.67;;;7.10;99.90;;;;;;5096978;28;20335;-64
2020/12/20 03:18:16;;;;;;;8.60;2.30;;;7.10;99.90;;;;;;5097744;28;20028;-64
2020/12/20 03:20:42;;;;;;;9.67;2.17;;;7.10;99.90;;;;;;5095937;28;20074;-64
2020/12/20 03:23:08;;;;;;;5.80;1.53;;;7.00;99.90;;;;;;5096787;28;20031;-64
2020/12/20 03:25:34;;;;;;;8.83;2.93;;;7.00;99.90;;;;;;5097299;28;20031;-64
2020/12/20 03:28:00;;;;;;;9.87;1.93;;;7.10;99.90;;;;;;5097314;28;20043;-64
2020/12/20 03:30:27;;;;;;;4.73;2.17;;;7.10;99.90;;;;;;5096899;28;20070;-64
2020/12/20 03:32:53;;;;;;;12.00;3.00;;;7.30;99.90;;;;;;5097087;28;20024;-64
2020/12/20 03:35:19;;;;;;;5.93;2.47;;;7.30;99.90;;;;;;5097221;28;20312;-65
2020/12/20 03:37:53;;;;;;;8.57;1.83;;;7.20;99.90;;;;;;5097151;28;20043;-64
2020/12/20 03:40:20;;;;;;;8.60;1.90;;;7.20;99.90;;;;;;5097001;28;20070;-64
2020/12/20 03:42:46;;;;;;;4.40;1.67;;;7.20;99.90;;;;;;5096974;28;20335;-64
2020/12/20 03:45:16;;;;;;;7.00;1.97;;;7.30;99.90;;;;;;5096663;28;20338;-64
2020/12/20 03:47:43;;;;;;;5.30;2.03;;;7.40;99.90;;;;;;5096763;28;20477;-64
2020/12/20 03:50:09;;;;;;;8.27;1.67;;;7.30;99.90;;;;;;5096746;28;20115;-64
2020/12/20 03:52:34;;;;;;;5.37;1.70;;;7.30;99.90;;;;;;5096469;28;20123;-64
2020/12/20 03:55:00;;;;;;;5.47;1.27;;;7.20;99.90;;;;;;5096785;28;20040;-64
2020/12/20 03:57:26;;;;;;;4.43;2.27;;;7.20;99.90;;;;;;5094864;28;20053;-64
2020/12/20 03:59:52;;;;;;;6.93;1.30;;;7.30;99.90;;;;;;5096809;28;20024;-65
2020/12/20 04:02:17;;;;;;;11.37;3.07;;;7.30;99.90;;;;;;5094932;28;20031;-64
2020/12/20 04:04:43;;;;;;;8.23;2.00;;;7.30;99.90;;;;;;5096969;28;20056;-64
2020/12/20 04:07:09;;;;;;;9.67;1.57;;;7.30;99.90;;;;;;5096824;28;20024;-64
2020/12/20 04:09:34;;;;;;;15.27;2.53;;;7.20;99.90;;;;;;5095214;28;20315;-64
2020/12/20 04:12:01;;;;;;;6.47;2.87;;;7.30;99.90;;;;;;5096900;28;20028;-65
2020/12/20 04:14:27;;;;;;;6.30;1.57;;;7.30;99.90;;;;;;5096528;28;20482;-65
2020/12/20 04:16:53;;;;;;;7.17;1.50;;;7.20;99.90;;;;;;5096505;28;20232;-65
2020/12/20 04:19:18;;;;;;;7.30;1.40;;;7.30;99.90;;;;;;5094218;28;20311;-65
2020/12/20 04:21:44;;;;;;;2.80;1.33;;;7.30;99.90;;;;;;5096124;28;20038;-65
2020/12/20 04:24:10;;;;;;;6.70;1.57;;;7.30;99.90;;;;;;5096270;28;20028;-65
2020/12/20 04:26:35;;;;;;;5.47;1.23;;;7.20;99.90;;;;;;5095196;28;20453;-64
2020/12/20 04:29:01;;;;;;;12.17;1.50;;;7.20;99.90;;;;;;5095978;28;20059;-64
2020/12/20 04:31:26;;;;;;;5.47;2.07;;;7.20;99.90;;;;;;5094641;28;20051;-64
2020/12/20 04:33:52;;;;;;;7.30;2.00;;;7.10;99.90;;;;;;5096224;28;20104;-65
2020/12/20 04:36:18;;;;;;;6.90;1.63;;;7.00;99.90;;;;;;5096096;28;20067;-65
2020/12/20 04:38:44;;;;;;;4.43;1.33;;;6.90;99.90;;;;;;5095767;28;20031;-65
2020/12/20 04:41:10;;;;;;;5.03;1.23;;;6.80;99.90;;;;;;5095874;28;20028;-65
2020/12/20 04:43:37;;;;;;;7.10;2.00;;;6.80;99.90;;;;;;5094944;28;20108;-65
2020/12/20 04:46:04;;;;;;;4.93;1.60;;;6.70;99.90;;;;;;5096437;28;20028;-64
2020/12/20 04:48:38;;;;;;;8.13;1.53;;;6.70;99.90;;;;;;5095761;28;20062;-65
2020/12/20 04:51:07;;;;;;;7.23;1.73;;;6.80;99.90;;;;;;5096345;28;20024;-65
2020/12/20 04:53:34;;;;;;;7.63;1.27;;;6.90;99.90;;;;;;5095603;28;20058;-64
2020/12/20 04:56:09;;;;;;;5.50;1.40;;;6.80;99.90;;;;;;5096082;28;20387;-64
2020/12/20 04:58:35;;;;;;;4.37;1.53;;;6.70;99.90;;;;;;5095702;28;20030;-65
2020/12/20 05:01:02;;;;;;;6.90;2.40;;;6.80;99.90;;;;;;5096328;28;20028;-65
2020/12/20 05:03:28;;;;;;;6.93;2.93;;;6.70;99.90;;;;;;5095484;28;20020;-64
2020/12/20 05:05:54;;;;;;;7.37;2.27;;;6.50;99.90;;;;;;5095931;28;20024;-64
2020/12/20 05:08:21;;;;;;;6.87;1.73;;;6.40;99.90;;;;;;5095758;28;20028;-64
2020/12/20 05:10:48;;;;;;;7.63;2.43;;;6.40;99.90;;;;;;5094631;28;20032;-64
2020/12/20 05:13:14;;;;;;;7.87;2.07;;;6.30;99.90;;;;;;5096160;28;20028;-65
2020/12/20 05:15:40;;;;;;;5.90;2.03;;;6.20;99.90;;;;;;5095401;28;20031;-65
2020/12/20 05:18:07;;;;;;;13.27;2.70;;;6.20;99.90;;;;;;5095091;28;20024;-65
2020/12/20 05:20:47;;;;;;;8.53;2.97;;;6.20;99.90;;;;;;5095354;28;20024;-65
2020/12/20 05:23:14;;;;;;;7.20;1.20;;;6.20;99.90;;;;;;5095924;28;20419;-65
2020/12/20 05:25:42;;;;;;;11.03;2.63;;;6.20;99.90;;;;;;5095465;28;20023;-65
2020/12/20 05:28:14;;;;;;;8.37;2.07;;;6.20;99.90;;;;;;5095670;28;20020;-64
2020/12/20 05:30:44;;;;;;;10.98;1.63;;;6.20;99.90;;;;;;5095718;28;20028;-64
2020/12/20 05:33:23;;;;;;;7.27;1.60;;;6.20;99.90;;;;;;5095823;28;20028;-64
2020/12/20 05:36:00;;;;;;;7.97;1.60;;;6.10;99.90;;;;;;5096018;28;20049;-64
2020/12/20 05:38:26;;;;;;;4.73;1.20;;;6.10;99.90;;;;;;5097985;28;20446;-65
2020/12/20 05:40:51;;;;;;;10.67;1.37;;;6.00;99.90;;;;;;5098118;28;20024;-65
2020/12/20 05:43:22;;;;;;;14.93;2.43;;;6.00;99.90;;;;;;5097926;28;20099;-64
2020/12/20 05:45:48;;;;;;;7.97;1.43;;;6.00;99.90;;;;;;5099460;28;20012;-64
2020/12/20 05:48:19;;;;;;;7.47;1.57;;;6.10;99.90;;;;;;5099143;28;20105;-64
2020/12/20 05:50:50;;;;;;;9.50;1.57;;;6.00;99.90;;;;;;5098346;28;20027;-64
2020/12/20 05:53:30;;;;;;;5.73;2.20;;;6.00;99.90;;;;;;5098109;28;20430;-64
2020/12/20 05:55:58;;;;;;;5.43;1.30;;;6.00;99.90;;;;;;5098932;28;20055;-64
2020/12/20 05:58:27;;;;;;;4.97;2.10;;;5.90;99.90;;;;;;5097329;28;20055;-64
2020/12/20 06:00:55;;;;;;;8.47;1.47;;;5.90;99.90;;;;;;5099146;28;20115;-64
2020/12/20 06:03:21;;;;;;;6.63;1.80;;;5.90;99.90;;;;;;5098502;28;20024;-64
2020/12/20 06:05:47;;;;;;;6.40;1.77;;;5.90;99.90;;;;;;5099504;28;20024;-64
2020/12/20 06:08:15;;;;;;;7.80;1.60;;;6.00;99.90;;;;;;5097400;28;20027;-64
2020/12/20 06:10:44;;;;;;;7.37;2.27;;;6.00;99.90;;;;;;5098410;28;20021;-64
2020/12/20 06:13:17;;;;;;;8.00;1.93;;;6.00;99.90;;;;;;5080842;28;20032;-64
2020/12/20 06:15:44;;;;;;;6.00;1.60;;;6.00;99.90;;;;;;5098286;28;20380;-64
2020/12/20 06:18:13;;;;;;;8.37;1.40;;;6.00;99.90;;;;;;5097430;28;20024;-64
2020/12/20 06:20:59;;;;;;;11.57;1.97;;;6.10;99.90;;;;;;5098244;28;20016;-64
2020/12/20 06:23:29;;;;;;;8.80;1.90;;;6.30;99.90;;;;;;5098290;28;20426;-64
2020/12/20 06:25:57;;;;;;;11.23;2.13;;;6.40;99.90;;;;;;5098326;28;20028;-64
2020/12/20 06:28:28;;;;;;;8.03;2.07;;;6.50;99.90;;;;;;5098521;28;20035;-65
2020/12/20 06:30:55;;;;;;;10.60;1.70;;;6.50;99.90;;;;;;5098206;28;20062;-65
2020/12/20 06:33:51;;;;;;;8.83;2.07;;;6.50;99.90;;;;;;5098546;28;20035;-64
2020/12/20 06:36:16;;;;;;;7.17;1.83;;;6.50;99.90;;;;;;5098913;28;20024;-65
2020/12/20 06:38:52;;;;;;;5.20;1.60;;;6.60;99.90;;;;;;5098221;28;20173;-65
2020/12/20 06:41:34;;;;;;;7.53;2.33;;;6.50;99.90;;;;;;5098025;28;20031;-65
2020/12/20 06:44:00;;;;;;;8.40;2.00;;;6.50;99.90;;;;;;5096966;28;20016;-65
2020/12/20 06:46:38;;;;;;;5.47;1.30;;;6.50;99.90;;;;;;5098347;28;20055;-65
2020/12/20 06:49:33;;;;;;;8.83;2.00;;;6.40;99.90;;;;;;5097622;28;20409;-65
2020/12/20 06:52:16;;;;;;;;;;;6.30;99.90;;;;;;5098582;28;20020;-65
2020/12/20 06:54:42;;;;;;;7.88;1.95;;;6.20;99.90;;;;;;5098023;28;19908;-64
2020/12/20 06:57:10;;;;;;;8.47;1.83;;;6.20;99.90;;;;;;5098267;28;20040;-64
2020/12/20 06:59:45;;;;;;;8.13;3.23;;;6.20;99.90;;;;;;5097849;28;20111;-65
2020/12/20 07:02:47;;;;;;;7.63;2.23;;;6.20;99.90;;;;;;5098597;28;20127;-65
2020/12/20 07:05:39;;;;;;;9.00;2.67;;;6.20;99.90;;;;;;5096205;28;20327;-65
2020/12/20 07:08:10;;;;;;;7.27;2.00;;;6.20;99.90;;;;;;5097763;28;20339;-65
2020/12/20 07:10:47;;;;;;;7.80;1.63;;;6.20;99.90;;;;;;5098147;28;20024;-65
2020/12/20 07:13:14;;;;;;;11.07;2.30;;;6.20;99.90;;;;;;5096253;28;20342;-64
2020/12/20 07:15:50;;;;;;;8.37;2.03;;;6.30;99.90;;;;;;5097856;28;20352;-65
2020/12/20 07:18:53;;;;;;;5.87;1.50;;;6.30;99.90;;;;;;5097414;28;20038;-65
2020/12/20 07:21:19;;;;;;;15.23;4.13;;;6.30;99.90;;;;;;5097576;28;20027;-65
2020/12/20 07:23:48;;;;;;;7.87;1.53;;;6.30;99.90;;;;;;5097145;28;20381;-66
2020/12/20 07:26:15;;;;;;;8.43;1.50;;;6.40;99.90;;;;;;5097939;28;20024;-65
2020/12/20 07:28:40;;;;;;;6.33;1.70;;;6.40;99.90;;;;;;5096868;28;20032;-65
2020/12/20 07:31:15;;;;;;;10.50;1.93;;;6.50;99.90;;;;;;5097629;28;20125;-65
2020/12/20 07:33:41;;;;;;;10.70;2.40;;;6.50;99.90;;;;;;5097891;28;20028;-65
2020/12/20 07:36:06;;;;;;;7.47;1.93;;;6.60;99.90;;;;;;5096765;28;20372;-65
2020/12/20 07:38:32;;;;;;;6.87;2.20;;;6.70;99.90;;;;;;5097327;28;20092;-65
2020/12/20 07:40:58;;;;;;;5.90;1.33;;;6.80;99.90;;;;;;5097385;28;20047;-65
2020/12/20 07:43:24;;;;;;;8.83;2.07;;;6.90;99.90;;;;;;5097029;28;20114;-65
2020/12/20 07:46:03;;;;;;;10.70;1.67;;;6.90;99.90;;;;;;5096936;28;20072;-65
2020/12/20 07:48:29;;;;;;;11.03;1.77;;;7.00;99.90;;;;;;5097119;28;20051;-65
2020/12/20 07:51:10;;;;;;;4.83;1.93;;;7.00;99.90;;;;;;5097086;28;20054;-65
2020/12/20 07:53:43;;;;;;;7.30;2.90;;;7.10;99.90;;;;;;5097258;28;20028;-65
2020/12/20 07:56:08;;;;;;;10.50;2.58;;;7.00;99.90;;;;;;5096505;28;20020;-64
2020/12/20 07:58:34;;;;;;;10.07;1.67;;;7.00;99.90;;;;;;5096537;28;20044;-64
2020/12/20 08:01:05;;;;;;;6.60;1.60;;;7.00;99.90;;;;;;5096722;28;20032;-64
2020/12/20 08:03:31;;;;;;;7.60;1.90;;;7.00;99.90;;;;;;5096630;28;20043;-64
2020/12/20 08:06:14;;;;;;;7.90;1.77;;;6.90;99.90;;;;;;5096464;28;20032;-64
2020/12/20 08:08:41;;;;;;;10.43;1.98;;;6.90;99.90;;;;;;5096827;28;20380;-64
2020/12/20 08:11:26;;;;;;;12.13;2.73;;;6.90;99.90;;;;;;5096390;28;20115;-64
2020/12/20 08:14:01;;;;;;;5.77;1.90;;;6.90;99.90;;;;;;5096788;28;20060;-65
2020/12/20 08:16:29;;;;;;;6.20;1.37;;;6.90;99.90;;;;;;5095403;28;20020;-65
2020/12/20 08:19:17;;;;;;;8.47;2.70;;;6.90;99.90;;;;;;5095845;28;20031;-65
2020/12/20 08:22:00;;;;;;;5.00;1.33;;;6.90;99.90;;;;;;5096337;28;20338;-65
2020/12/20 08:24:30;;;;;;;7.47;1.48;;;6.80;99.90;;;;;;5095502;28;20406;-64
2020/12/20 08:26:57;;;;;;;4.07;1.63;;;6.80;99.90;;;;;;5096505;28;20047;-64
2020/12/20 08:29:23;;;;;;;7.57;1.90;;;6.80;99.90;;;;;;5096546;28;20048;-65
2020/12/20 08:31:49;;;;;;;9.33;2.37;;;6.90;99.90;;;;;;5094956;28;20024;-64
2020/12/20 08:34:23;;;;;;;6.70;1.77;;;7.00;99.90;;;;;;5095421;28;20040;-64
2020/12/20 08:36:51;;;;;;;7.33;1.33;;;7.00;99.90;;;;;;5095821;28;20032;-64
2020/12/20 08:39:24;;;;;;;8.43;2.57;;;7.20;99.90;;;;;;5096126;28;20059;-65
2020/12/20 08:42:06;;;;;;;8.40;2.10;;;7.20;99.90;;;;;;5094373;28;20423;-64
2020/12/20 08:44:32;;;;;;;9.57;2.53;;;7.10;99.90;;;;;;5096298;28;20032;-64
2020/12/20 08:47:12;;;;;;;4.67;1.60;;;7.10;99.90;;;;;;5096170;28;20048;-64
2020/12/20 08:49:53;;;;;;;6.03;2.20;;;7.10;99.90;;;;;;5094561;28;20335;-65
2020/12/20 08:52:19;;;;;;;8.67;1.77;;;7.10;99.90;;;;;;5095617;28;20035;-65
2020/12/20 08:54:49;;;;;;;4.67;1.90;;;7.10;99.90;;;;;;5096639;28;20040;-65
2020/12/20 08:57:16;;;;;;;7.57;1.80;;;7.10;99.90;;;;;;5096016;28;20036;-64
2020/12/20 08:59:43;;;;;;;5.43;1.07;;;7.10;99.90;;;;;;5096104;28;20107;-65
2020/12/20 09:02:23;;;;;;;12.97;3.13;;;7.10;99.90;;;;;;5095598;28;20081;-65
2020/12/20 09:05:06;;;;;;;4.73;1.10;;;7.10;99.90;;;;;;5095619;28;20107;-64
2020/12/20 09:07:41;;;;;;;6.57;1.87;;;7.20;99.90;;;;;;5096246;28;20062;-64
2020/12/20 09:10:11;;;;;;;5.97;1.80;;;7.30;99.90;;;;;;5094610;28;20024;-64
2020/12/20 09:12:49;;;;;;;6.70;1.83;;;7.30;99.90;;;;;;5096423;28;20022;-64
2020/12/20 09:15:16;;;;;;;5.90;1.20;;;7.30;99.90;;;;;;5100208;28;20051;-64
2020/12/20 09:17:55;;;;;;;4.33;1.53;;;7.50;99.90;;;;;;5099534;28;20034;-65
2020/12/20 09:20:27;;;;;;;10.37;1.77;;;7.60;99.90;;;;;;5099537;28;20016;-65
2020/12/20 09:23:00;;;;;;;5.80;1.63;;;7.70;99.90;;;;;;5099609;28;20032;-65
2020/12/20 09:25:31;;;;;;;;;;;7.70;99.90;;;;;;5098816;28;20020;-64
2020/12/20 09:28:00;;;;;;;5.03;1.57;;;7.80;99.90;;;;;;5097478;28;20349;-65
2020/12/20 09:30:46;;;;;;;4.00;1.00;;;7.90;99.90;;;;;;5099300;28;20134;-64
2020/12/20 09:33:25;;;;;;;6.17;2.00;;;8.00;99.90;;;;;;5098055;28;20023;-65
2020/12/20 09:36:18;;;;;;;6.63;1.90;;;8.10;99.90;;;;;;5098611;28;20024;-65
2020/12/20 09:38:49;;;;;;;6.60;1.20;;;8.20;99.90;;;;;;5099188;28;20024;-65
2020/12/20 09:41:17;;;;;;;4.73;1.50;;;8.20;99.90;;;;;;5099522;28;20106;-65
2020/12/20 09:43:44;;;;;;;7.03;1.53;;;8.20;99.90;;;;;;5099318;28;20020;-65
2020/12/20 09:46:26;;;;;;;4.90;1.33;;;8.20;99.90;;;;;;5099360;28;20024;-65
2020/12/20 09:48:53;;;;;;;9.53;1.50;;;8.30;99.90;;;;;;5099196;28;20461;-65
2020/12/20 09:51:20;;;;;;;6.77;1.53;;;8.40;99.90;;;;;;5099188;28;20051;-65
2020/12/20 09:53:47;;;;;;;5.47;1.13;;;8.40;99.90;;;;;;5099232;28;20032;-64
2020/12/20 09:56:13;;;;;;;6.10;1.50;;;8.40;99.90;;;;;;5099449;28;20032;-64
2020/12/20 09:58:40;;;;;;;4.77;1.20;;;8.30;99.90;;;;;;5099038;28;20028;-64
2020/12/20 10:01:05;;;;;;;5.83;1.10;;;8.40;99.90;;;;;;5097366;28;20354;-64
2020/12/20 10:03:31;;;;;;;5.17;1.07;;;8.40;99.90;;;;;;5098570;28;20039;-63
2020/12/20 10:05:58;;;;;;;4.90;1.67;;;8.40;99.90;;;;;;5098694;28;20020;-64
2020/12/20 10:08:25;;;;;;;3.27;1.67;;;8.40;99.90;;;;;;5098757;28;20050;-64
2020/12/20 10:10:52;;;;;;;5.60;1.30;;;8.40;99.90;;;;;;5102336;28;20027;-64
2020/12/20 10:13:18;;;;;;;2.43;0.97;;;8.30;99.90;;;;;;5101683;28;20486;-64
2020/12/20 10:15:44;;;;;;;8.47;1.47;;;8.40;99.90;;;;;;5096891;28;20032;-64
2020/12/20 10:18:10;;;;;;;4.47;1.03;;;8.60;99.90;;;;;;5097824;28;20118;-64
2020/12/20 10:20:35;;;;;;;6.13;1.87;;;8.80;99.90;;;;;;5096764;28;20494;-64
2020/12/20 10:23:01;;;;;;;5.33;0.90;;;9.00;99.90;;;;;;5109740;28;20035;-63
2020/12/20 10:25:28;;;;;;;5.10;1.37;;;9.10;99.90;;;;;;5096525;28;20097;-64
2020/12/20 10:27:54;;;;;;;3.60;0.60;;;9.20;99.90;;;;;;5098405;28;20111;-63
2020/12/20 10:30:20;;;;;;;4.40;1.23;;;9.30;99.90;;;;;;5098897;28;20031;-63
2020/12/20 10:32:47;;;;;;;3.00;1.00;;;9.50;99.90;;;;;;5097049;28;20040;-63
2020/12/20 10:35:14;;;;;;;4.20;1.20;;;9.80;99.90;;;;;;5098350;28;20415;-65
2020/12/20 10:37:39;;;;;;;2.80;1.10;;;9.50;99.90;;;;;;5098228;28;20032;-64
2020/12/20 10:40:05;;;;;;;4.33;1.37;;;9.50;99.90;;;;;;5104436;28;20046;-64
2020/12/20 10:42:31;;;;;;;5.57;1.30;;;9.60;99.90;;;;;;5098289;28;20401;-64
2020/12/20 10:44:56;;;;;;;5.70;0.90;;;9.60;99.90;;;;;;5109878;28;20358;-65
2020/12/20 10:47:23;;;;;;;4.33;0.93;;;9.50;99.90;;;;;;5097930;28;20044;-63
2020/12/20 10:49:50;;;;;;;3.80;1.10;;;9.40;99.90;;;;;;5107070;28;20131;-64
2020/12/20 10:52:16;;;;;;;5.67;1.10;;;9.30;99.90;;;;;;5096592;28;20058;-64
2020/12/20 10:54:42;;;;;;;3.77;1.33;;;9.30;99.90;;;;;;5104208;28;20066;-64
2020/12/20 10:57:08;;;;;;;5.33;1.23;;;9.20;99.90;;;;;;5097852;28;20032;-64
2020/12/20 10:59:34;;;;;;;5.07;2.07;;;9.30;99.90;;;;;;5098347;28;20032;-64
2020/12/20 11:01:59;;;;;;;3.10;1.30;;;9.20;99.90;;;;;;5097710;28;20161;-64
2020/12/20 11:04:26;;;;;;;5.93;1.53;;;9.30;99.90;;;;;;5097788;28;20036;-64
2020/12/20 11:06:56;;;;;;;3.33;1.07;;;9.30;99.90;;;;;;5098009;28;20108;-65
2020/12/20 11:09:26;;;;;;;9.60;2.80;;;9.40;99.90;;;;;;5098195;28;20035;-64
2020/12/20 11:11:52;;;;;;;7.80;1.40;;;9.40;99.90;;;;;;5097531;28;20039;-64
2020/12/20 11:14:18;;;;;;;4.73;1.07;;;9.80;99.90;;;;;;5097808;28;20367;-64
2020/12/20 11:16:43;;;;;;;6.20;1.70;;;9.90;99.90;;;;;;5097648;28;20020;-64
2020/12/20 11:19:09;;;;;;;5.87;1.37;;;10.20;99.90;;;;;;5097220;28;20038;-64
2020/12/20 11:21:36;;;;;;;4.70;1.10;;;10.40;99.90;;;;;;5096287;28;20028;-64
2020/12/20 11:24:02;;;;;;;4.97;2.20;;;10.20;99.90;;;;;;5096640;28;20044;-64
2020/12/20 11:26:27;;;;;;;10.63;1.97;;;10.00;99.90;;;;;;5092233;28;20059;-64
2020/12/20 11:28:53;;;;;;;5.20;1.17;;;9.90;99.90;;;;;;5088091;28;20016;-64
2020/12/20 11:31:23;;;;;;;8.23;1.23;;;9.70;99.90;;;;;;5090858;28;20426;-64
2020/12/20 11:33:50;;;;;;;5.47;1.00;;;9.70;99.90;;;;;;5084934;28;20078;-64
2020/12/20 11:36:23;;;;;;;7.20;1.30;;;9.80;99.90;;;;;;5096742;28;20449;-65
2020/12/20 11:38:51;;;;;;;4.43;1.33;;;9.80;99.90;;;;;;5096492;28;20032;-65
2020/12/20 11:41:24;;;;;;;3.57;1.20;;;9.80;99.90;;;;;;5096639;28;20028;-65
2020/12/20 11:43:54;;;;;;;4.40;1.77;;;10.00;99.90;;;;;;5096514;28;20048;-65
2020/12/20 11:46:21;;;;;;;4.97;2.10;;;9.80;99.90;;;;;;5096465;28;20031;-65
2020/12/20 11:48:47;;;;;;;7.27;1.20;;;9.70;99.90;;;;;;5097210;28;20134;-65
2020/12/20 11:51:14;;;;;;;3.23;0.90;;;9.60;99.90;;;;;;5096440;28;20024;-65
2020/12/20 11:53:40;;;;;;;8.37;2.63;;;9.70;99.90;;;;;;5096857;28;20024;-64
2020/12/20 11:56:11;;;;;;;9.43;1.80;;;9.70;99.90;;;;;;5095144;28;20035;-65
2020/12/20 11:58:40;;;;;;;4.37;1.20;;;9.80;99.90;;;;;;5097252;28;20123;-65
2020/12/20 12:01:07;;;;;;;4.73;1.47;;;10.00;99.90;;;;;;5095448;28;20450;-65
2020/12/20 12:03:33;;;;;;;5.77;1.50;;;10.10;99.90;;;;;;5096609;28;20011;-65
2020/12/20 12:05:59;;;;;;;7.50;2.23;;;10.20;99.90;;;;;;5095234;28;20072;-65
2020/12/20 12:08:25;;;;;;;5.70;1.20;;;9.90;99.90;;;;;;5096622;28;20031;-65
2020/12/20 12:10:51;;;;;;;2.87;0.83;;;9.80;99.90;;;;;;5095426;28;20031;-65
2020/12/20 12:13:18;;;;;;;6.73;1.43;;;9.80;99.90;;;;;;5096606;28;20024;-66
2020/12/20 12:15:45;;;;;;;5.13;2.10;;;9.80;99.90;;;;;;5096587;28;20450;-63
2020/12/20 12:18:11;;;;;;;6.93;1.20;;;9.90;99.90;;;;;;5096333;28;20395;-64
2020/12/20 12:20:37;;;;;;;2.80;0.70;;;9.80;99.90;;;;;;5096059;28;20035;-64
2020/12/20 12:23:03;;;;;;;3.20;1.20;;;9.80;99.90;;;;;;5096569;28;20330;-65
2020/12/20 12:25:29;;;;;;;5.53;1.67;;;9.90;99.90;;;;;;5094539;28;20026;-64
2020/12/20 12:27:55;;;;;;;6.43;1.63;;;9.90;99.90;;;;;;5095191;28;20126;-65
2020/12/20 12:30:20;;;;;;;4.83;1.60;;;9.90;99.90;;;;;;5094385;28;20059;-65
2020/12/20 12:32:46;;;;;;;4.63;1.67;;;9.90;99.90;;;;;;5096199;28;20028;-65
2020/12/20 12:35:12;;;;;;;4.63;1.10;;;9.90;99.90;;;;;;5094537;28;20027;-65
2020/12/20 12:37:38;;;;;;;4.23;1.17;;;10.10;99.90;;;;;;5095753;28;20039;-65
2020/12/20 12:40:06;;;;;;;4.83;1.10;;;10.10;99.90;;;;;;5095370;28;20075;-65
2020/12/20 12:42:32;;;;;;;5.90;0.90;;;10.20;99.90;;;;;;5095718;28;20024;-65
2020/12/20 12:44:57;;;;;;;6.93;2.43;;;10.20;99.90;;;;;;5095807;28;20099;-65
2020/12/20 12:47:23;;;;;;;2.07;1.23;;;10.30;99.90;;;;;;5095033;28;20135;-65
2020/12/20 12:49:49;;;;;;;5.37;1.43;;;10.30;99.90;;;;;;5095064;28;20032;-65
2020/12/20 12:52:15;;;;;;;1.63;0.60;;;10.40;99.90;;;;;;5095785;28;20703;-65
2020/12/20 12:54:40;;;;;;;3.30;0.70;;;10.40;99.90;;;;;;5096363;28;20063;-65
2020/12/20 12:57:06;;;;;;;5.57;0.80;;;10.30;99.90;;;;;;5095712;28;20030;-64
2020/12/20 12:59:32;;;;;;;4.90;1.10;;;10.30;99.90;;;;;;5094565;28;20024;-67
2020/12/20 13:01:58;;;;;;;2.47;0.73;;;10.30;99.90;;;;;;5095228;28;20027;-65